DW8673 Jerrabomberra AU current weather conditions

sailwx.info

Wind from 015 at 1 knots gusting 5

Air temperature 18.9° C
Dewpoint 5.0° C

Last reported at 2014-Oct-31 19:43 UTC.
Time now 2014-Nov-01 07:27 UTC

Location: S 35°23' E 149°12'.
View on Google Maps.

See reports from other nearby stations

  
Tides and Currents Weather Stations Pressure Air Temp Water Temp Dewpoint Dewpoint Depression Visibility Wind Speed Wind Dir Waves Ship Positions
date/time (UTC)wind fromknots sea level pressurealtimeterstation pressurevisibilityair tempwater tempwave heightnotes
2014-Oct-31 19:43 015 1 gusting 5 18.9
2014-Oct-31 19:33 078 0 gusting 2 18.9
2014-Oct-31 19:13 318 1 gusting 2 18.3
2014-Oct-31 19:03 087 0 gusting 2 18.3
2014-Oct-31 18:43 344 1 gusting 2 18.3
2014-Oct-31 18:33 034 18.3
2014-Oct-31 18:13 045 0 gusting 2 18.9
2014-Oct-31 18:03 013 0 gusting 2 18.9
2014-Oct-31 17:43 324 1 gusting 5 19.4
2014-Oct-31 17:33 316 1 gusting 5 19.4
2014-Oct-31 17:13 351 1 gusting 7 19.4
2014-Oct-31 17:03 009 1 gusting 5 19.4
2014-Oct-31 16:43 349 0 gusting 5 19.4
2014-Oct-31 16:33 307 1 gusting 5 19.4
2014-Oct-31 16:13 175 1 gusting 5 18.9
2014-Oct-31 16:03 147 0 gusting 2 18.3
2014-Oct-31 15:43 135 17.8
2014-Oct-31 15:33 049 0 gusting 2 16.7
2014-Oct-31 15:13 032 16.1
2014-Oct-31 15:03 005 0 gusting 1 16.1
2014-Oct-31 14:43 257 16.1
2014-Oct-31 14:33 090 16.1
2014-Oct-31 14:13 180 15.6
2014-Oct-31 14:03 180 15.6
2014-Oct-31 13:43 135 15.0
2014-Oct-31 13:33 112 15.0
2014-Oct-31 13:13 112 15.6
2014-Oct-31 13:03 112 15.6
2014-Oct-31 12:43 135 15.6
2014-Oct-31 12:33 135 16.1
2014-Oct-31 12:13 135 16.7
2014-Oct-31 12:03 135 16.7
2014-Oct-31 11:43 138 17.2
2014-Oct-31 11:33 090 17.8
2014-Oct-31 11:13 167 17.8
2014-Oct-31 11:03 158 18.3
2014-Oct-31 10:43 324 18.9
2014-Oct-31 10:33 199 18.9
2014-Oct-31 10:13 112 19.4
2014-Oct-31 10:03 112 19.4
2014-Oct-31 09:43 090 20.6
2014-Oct-31 09:33 090 20.6
2014-Oct-31 09:13 090 22.2
2014-Oct-31 09:03 090 22.8
2014-Oct-31 08:43 090 24.4
2014-Oct-31 08:33 076 25.6
2014-Oct-31 08:13 339 1 gusting 5 27.8
2014-Oct-31 08:03 347 2 gusting 6 29.4
2014-Oct-31 07:43 328 2 gusting 5 31.1
2014-Oct-31 07:33 222 1 gusting 7 30.6
2014-Oct-31 07:13 306 1 gusting 7 31.1
2014-Oct-31 07:03 226 2 gusting 6 31.7
2014-Oct-31 06:43 289 2 gusting 6 31.7
2014-Oct-31 06:33 277 4 gusting 8 32.2
2014-Oct-31 06:13 329 5 gusting 11 32.8
2014-Oct-31 06:03 323 6 gusting 13 32.8
2014-Oct-31 05:43 272 1 gusting 6 32.2
2014-Oct-31 05:33 020 4 gusting 10 33.9
2014-Oct-31 05:13 240 2 gusting 10 33.3
2014-Oct-31 05:03 330 4 gusting 6 32.8
2014-Oct-31 04:43 323 2 gusting 6 32.2
2014-Oct-31 04:33 238 4 gusting 11 33.9
2014-Oct-31 04:13 349 4 gusting 11 33.3
2014-Oct-31 04:03 245 5 gusting 12 33.3
2014-Oct-31 03:43 261 4 gusting 7 33.3
2014-Oct-31 03:33 240 4 gusting 10 33.3
2014-Oct-31 03:13 339 5 gusting 8 33.3
2014-Oct-31 03:03 264 3 gusting 8 33.3
2014-Oct-31 02:43 273 3 gusting 8 32.2
2014-Oct-31 02:33 234 4 gusting 10 33.3
2014-Oct-31 02:13 257 2 gusting 6 32.8
2014-Oct-31 02:03 285 3 gusting 7 32.2
2014-Oct-31 01:43 340 4 gusting 7 31.7
2014-Oct-31 01:33 307 3 gusting 10 31.7
2014-Oct-31 01:13 261 2 gusting 5 31.1
2014-Oct-31 01:03 305 3 gusting 7 30.6
2014-Oct-31 00:43 332 4 gusting 7 30.0
2014-Oct-31 00:33 265 4 gusting 6 29.4
2014-Oct-31 00:13 274 3 gusting 6 28.9
2014-Oct-30 23:43 002 2 gusting 5 27.8
2014-Oct-30 23:33 246 2 gusting 6 27.2
2014-Oct-30 23:13 097 1 gusting 2 26.1
2014-Oct-30 23:03 001 1 gusting 2 26.1
2014-Oct-30 22:43 261 0 gusting 1 24.4
2014-Oct-30 22:33 270 0 gusting 2 23.9
2014-Oct-30 22:13 293 0 gusting 2 22.2
2014-Oct-30 22:03 259 0 gusting 1 21.7
2014-Oct-30 21:43 334 0 gusting 1 20.0
2014-Oct-30 21:33 300 0 gusting 1 18.9
2014-Oct-30 21:13 17.2
2014-Oct-30 21:03 17.2
2014-Oct-30 20:43 248 0 gusting 0 15.6
2014-Oct-30 20:33 158 14.4
2014-Oct-30 20:13 202 11.7
2014-Oct-30 20:03 248 8.9
2014-Oct-30 19:43 224 7.8
2014-Oct-30 19:33 135 7.2
2014-Oct-30 19:13 090 7.2
2014-Oct-30 19:03 089 7.2
2014-Oct-30 18:43 090 7.2
2014-Oct-30 18:33 090 7.8
2014-Oct-30 18:13 090 7.8
2014-Oct-30 18:03 090 7.8
2014-Oct-30 17:43 090 7.8
2014-Oct-30 17:33 090 7.8
2014-Oct-30 17:13 090 8.3
2014-Oct-30 17:03 090 8.3
2014-Oct-30 16:43 135 8.3
2014-Oct-30 16:33 135 8.3
2014-Oct-30 16:13 180 8.9
2014-Oct-30 16:03 202 8.9
2014-Oct-30 15:43 202 9.4
2014-Oct-30 15:33 202 9.4
2014-Oct-30 15:13 135 9.4
2014-Oct-30 15:03 135 9.4
2014-Oct-30 14:43 158 10.0
2014-Oct-30 14:33 158 10.0
2014-Oct-30 14:13 158 10.6
2014-Oct-30 14:03 158 10.6
2014-Oct-30 13:43 158 10.6
2014-Oct-30 13:33 158 11.1
2014-Oct-30 13:13 202 11.1
2014-Oct-30 13:03 212 11.7
2014-Oct-30 12:43 135 11.7
2014-Oct-30 12:33 301 12.2
2014-Oct-30 12:13 202 12.8
2014-Oct-30 12:03 068 12.8
2014-Oct-30 11:43 135 13.3
2014-Oct-30 11:33 135 13.3
2014-Oct-30 11:13 158 13.9
2014-Oct-30 11:03 158 14.4
2014-Oct-30 10:43 158 15.0
2014-Oct-30 10:33 196 0 gusting 0 15.0
2014-Oct-30 10:13 169 15.6
2014-Oct-30 10:03 270 16.1
2014-Oct-30 09:43 277 17.2
2014-Oct-30 09:33 135 17.8
2014-Oct-30 09:13 135 18.9
2014-Oct-30 09:03 090 20.0
2014-Oct-30 08:43 158 21.7
2014-Oct-30 08:33 225 22.8
2014-Oct-30 08:13 289 1 gusting 4 25.6
2014-Oct-30 08:03 245 1 gusting 5 26.1
2014-Oct-30 07:43 280 2 gusting 7 26.1
2014-Oct-30 07:33 292 4 gusting 7 26.7
2014-Oct-30 07:13 278 4 gusting 7 27.2
2014-Oct-30 07:03 263 4 gusting 6 27.2